sensor_id;sensor_type;location;lat;lon;timestamp;pressure;altitude;pressure_sealevel;temperature;humidity
35989;BME280;22064;42.672;23.282;2023-11-19T00:00:53;94633.22;;;2.53;100.00
35989;BME280;22064;42.672;23.282;2023-11-19T00:03:19;94643.91;;;2.57;100.00
35989;BME280;22064;42.672;23.282;2023-11-19T00:05:45;94631.00;;;2.43;100.00
35989;BME280;22064;42.672;23.282;2023-11-19T00:08:11;94628.25;;;2.58;100.00
35989;BME280;22064;42.672;23.282;2023-11-19T00:10:37;94632.22;;;2.54;100.00
35989;BME280;22064;42.672;23.282;2023-11-19T00:13:03;94617.03;;;2.66;100.00
35989;BME280;22064;42.672;23.282;2023-11-19T00:15:30;94613.03;;;2.57;100.00
35989;BME280;22064;42.672;23.282;2023-11-19T00:17:55;94614.25;;;2.61;100.00
35989;BME280;22064;42.672;23.282;2023-11-19T00:20:21;94640.72;;;2.54;100.00
35989;BME280;22064;42.672;23.282;2023-11-19T00:22:48;94626.31;;;2.60;100.00
35989;BME280;22064;42.672;23.282;2023-11-19T00:25:20;94604.16;;;2.52;100.00
35989;BME280;22064;42.672;23.282;2023-11-19T00:27:50;94626.28;;;2.53;100.00
35989;BME280;22064;42.672;23.282;2023-11-19T00:30:17;94609.47;;;2.58;100.00
35989;BME280;22064;42.672;23.282;2023-11-19T00:32:43;94635.56;;;2.54;100.00
35989;BME280;22064;42.672;23.282;2023-11-19T00:35:09;94653.56;;;2.54;100.00
35989;BME280;22064;42.672;23.282;2023-11-19T00:37:41;94634.75;;;2.47;100.00
35989;BME280;22064;42.672;23.282;2023-11-19T00:40:08;94644.03;;;2.48;100.00
35989;BME280;22064;42.672;23.282;2023-11-19T00:42:36;94646.28;;;2.65;100.00
35989;BME280;22064;42.672;23.282;2023-11-19T00:45:02;94640.72;;;2.54;100.00
35989;BME280;22064;42.672;23.282;2023-11-19T00:47:28;94654.91;;;2.44;100.00
35989;BME280;22064;42.672;23.282;2023-11-19T00:49:54;94625.28;;;2.54;100.00
35989;BME280;22064;42.672;23.282;2023-11-19T00:52:19;94625.91;;;2.57;100.00
35989;BME280;22064;42.672;23.282;2023-11-19T00:54:45;94668.28;;;2.33;100.00
35989;BME280;22064;42.672;23.282;2023-11-19T00:57:11;94650.56;;;2.44;100.00
35989;BME280;22064;42.672;23.282;2023-11-19T00:59:37;94621.50;;;2.44;100.00
35989;BME280;22064;42.672;23.282;2023-11-19T01:02:04;94630.00;;;2.44;100.00
35989;BME280;22064;42.672;23.282;2023-11-19T01:04:35;94634.75;;;2.47;100.00
35989;BME280;22064;42.672;23.282;2023-11-19T01:07:02;94634.94;;;2.46;100.00
35989;BME280;22064;42.672;23.282;2023-11-19T01:09:32;94636.53;;;2.47;100.00
35989;BME280;22064;42.672;23.282;2023-11-19T01:12:03;94650.97;;;2.48;100.00
35989;BME280;22064;42.672;23.282;2023-11-19T01:14:29;94655.75;;;2.58;100.00
35989;BME280;22064;42.672;23.282;2023-11-19T01:16:56;94634.00;;;2.53;100.00
35989;BME280;22064;42.672;23.282;2023-11-19T01:19:22;94654.53;;;2.47;100.00
35989;BME280;22064;42.672;23.282;2023-11-19T01:21:49;94643.91;;;2.57;100.00
35989;BME280;22064;42.672;23.282;2023-11-19T01:24:15;94631.56;;;2.45;100.00
35989;BME280;22064;42.672;23.282;2023-11-19T01:26:41;94644.03;;;2.42;100.00
35989;BME280;22064;42.672;23.282;2023-11-19T01:29:16;94645.41;;;2.38;100.00
35989;BME280;22064;42.672;23.282;2023-11-19T01:31:43;94655.47;;;2.39;100.00
35989;BME280;22064;42.672;23.282;2023-11-19T01:34:10;94654.53;;;2.47;100.00
35989;BME280;22064;42.672;23.282;2023-11-19T01:36:37;94662.00;;;2.42;100.00
35989;BME280;22064;42.672;23.282;2023-11-19T01:39:03;94658.41;;;2.36;100.00
35989;BME280;22064;42.672;23.282;2023-11-19T01:41:35;94655.31;;;2.47;100.00
35989;BME280;22064;42.672;23.282;2023-11-19T01:44:01;94665.59;;;2.47;100.00
35989;BME280;22064;42.672;23.282;2023-11-19T01:46:27;94658.13;;;2.52;100.00
35989;BME280;22064;42.672;23.282;2023-11-19T01:48:54;94666.97;;;2.43;100.00
35989;BME280;22064;42.672;23.282;2023-11-19T01:51:21;94656.69;;;2.43;100.00
35989;BME280;22064;42.672;23.282;2023-11-19T01:53:48;94664.78;;;2.40;100.00
35989;BME280;22064;42.672;23.282;2023-11-19T01:56:15;94658.75;;;2.26;100.00
35989;BME280;22064;42.672;23.282;2023-11-19T01:58:43;94676.78;;;2.33;100.00
35989;BME280;22064;42.672;23.282;2023-11-19T02:01:12;94682.25;;;2.23;100.00
35989;BME280;22064;42.672;23.282;2023-11-19T02:03:38;94671.81;;;2.25;100.00
35989;BME280;22064;42.672;23.282;2023-11-19T02:06:05;94656.81;;;2.28;100.00
35989;BME280;22064;42.672;23.282;2023-11-19T02:08:31;94671.47;;;2.35;100.00
35989;BME280;22064;42.672;23.282;2023-11-19T02:10:57;94657.66;;;2.42;100.00
35989;BME280;22064;42.672;23.282;2023-11-19T02:13:25;94680.59;;;2.37;100.00
35989;BME280;22064;42.672;23.282;2023-11-19T02:15:51;94657.22;;;2.32;100.00
35989;BME280;22064;42.672;23.282;2023-11-19T02:18:22;94667.91;;;2.36;100.00
35989;BME280;22064;42.672;23.282;2023-11-19T02:20:50;94661.16;;;2.28;100.00
35989;BME280;22064;42.672;23.282;2023-11-19T02:23:16;94655.44;;;2.33;100.00
35989;BME280;22064;42.672;23.282;2023-11-19T02:25:51;94650.47;;;2.24;100.00
35989;BME280;22064;42.672;23.282;2023-11-19T02:28:20;94649.44;;;2.19;100.00
35989;BME280;22064;42.672;23.282;2023-11-19T02:30:47;94665.25;;;2.16;100.00
35989;BME280;22064;42.672;23.282;2023-11-19T02:33:13;94653.75;;;2.12;100.00
35989;BME280;22064;42.672;23.282;2023-11-19T02:35:40;94644.84;;;2.07;100.00
35989;BME280;22064;42.672;23.282;2023-11-19T02:38:06;94654.06;;;2.02;100.00
35989;BME280;22064;42.672;23.282;2023-11-19T02:40:33;94635.69;;;1.98;100.00
35989;BME280;22064;42.672;23.282;2023-11-19T02:42:59;94658.75;;;1.92;100.00
35989;BME280;22064;42.672;23.282;2023-11-19T02:45:25;94644.34;;;1.91;100.00
35989;BME280;22064;42.672;23.282;2023-11-19T02:47:52;94656.97;;;1.92;100.00
35989;BME280;22064;42.672;23.282;2023-11-19T02:50:19;94655.81;;;1.95;100.00
35989;BME280;22064;42.672;23.282;2023-11-19T02:52:52;94644.72;;;1.88;100.00
35989;BME280;22064;42.672;23.282;2023-11-19T02:55:18;94653.81;;;1.90;100.00
35989;BME280;22064;42.672;23.282;2023-11-19T02:57:45;94662.50;;;1.89;100.00
35989;BME280;22064;42.672;23.282;2023-11-19T03:00:19;94638.25;;;1.98;100.00
35989;BME280;22064;42.672;23.282;2023-11-19T03:02:49;94663.97;;;2.05;100.00
35989;BME280;22064;42.672;23.282;2023-11-19T03:05:25;94662.19;;;2.05;100.00
35989;BME280;22064;42.672;23.282;2023-11-19T03:07:52;94624.97;;;1.88;100.00
35989;BME280;22064;42.672;23.282;2023-11-19T03:10:18;94678.47;;;2.13;100.00
35989;BME280;22064;42.672;23.282;2023-11-19T03:12:44;94684.31;;;2.00;100.00
35989;BME280;22064;42.672;23.282;2023-11-19T03:15:11;94674.63;;;2.02;100.00
35989;BME280;22064;42.672;23.282;2023-11-19T03:17:41;94680.53;;;2.02;100.00
35989;BME280;22064;42.672;23.282;2023-11-19T03:20:10;94676.84;;;2.12;100.00
35989;BME280;22064;42.672;23.282;2023-11-19T03:22:41;94660.78;;;1.96;100.00
35989;BME280;22064;42.672;23.282;2023-11-19T03:25:08;94680.34;;;1.97;100.00
35989;BME280;22064;42.672;23.282;2023-11-19T03:27:42;94665.72;;;1.98;100.00
35989;BME280;22064;42.672;23.282;2023-11-19T03:30:09;94664.50;;;1.94;100.00
35989;BME280;22064;42.672;23.282;2023-11-19T03:32:36;94683.81;;;1.90;100.00
35989;BME280;22064;42.672;23.282;2023-11-19T03:35:02;94683.50;;;1.99;100.00
35989;BME280;22064;42.672;23.282;2023-11-19T03:37:30;94679.59;;;2.03;100.00
35989;BME280;22064;42.672;23.282;2023-11-19T03:39:59;94681.00;;;2.06;100.00
35989;BME280;22064;42.672;23.282;2023-11-19T03:42:28;94681.53;;;2.01;100.00
35989;BME280;22064;42.672;23.282;2023-11-19T03:44:56;94677.19;;;2.02;100.00
35989;BME280;22064;42.672;23.282;2023-11-19T03:47:22;94678.78;;;2.03;100.00
35989;BME280;22064;42.672;23.282;2023-11-19T03:49:49;94692.19;;;1.98;100.00
35989;BME280;22064;42.672;23.282;2023-11-19T03:52:16;94703.56;;;1.89;100.00
35989;BME280;22064;42.672;23.282;2023-11-19T03:54:42;94686.84;;;1.93;100.00
35989;BME280;22064;42.672;23.282;2023-11-19T03:57:08;94690.59;;;1.97;100.00
35989;BME280;22064;42.672;23.282;2023-11-19T03:59:36;94668.47;;;1.96;100.00
35989;BME280;22064;42.672;23.282;2023-11-19T04:02:02;94702.66;;;1.97;100.00
35989;BME280;22064;42.672;23.282;2023-11-19T04:04:29;94688.44;;;2.01;100.00
35989;BME280;22064;42.672;23.282;2023-11-19T04:06:57;94700.72;;;2.05;100.00
35989;BME280;22064;42.672;23.282;2023-11-19T04:09:23;94709.03;;;2.07;100.00
35989;BME280;22064;42.672;23.282;2023-11-19T04:11:50;94710.72;;;1.94;100.00
35989;BME280;22064;42.672;23.282;2023-11-19T04:14:16;94756.63;;;2.03;100.00
35989;BME280;22064;42.672;23.282;2023-11-19T04:16:46;94722.25;;;2.04;100.00
35989;BME280;22064;42.672;23.282;2023-11-19T04:19:12;94731.00;;;2.10;100.00
35989;BME280;22064;42.672;23.282;2023-11-19T04:21:41;94722.66;;;2.08;100.00
35989;BME280;22064;42.672;23.282;2023-11-19T04:24:08;94740.53;;;2.16;100.00
35989;BME280;22064;42.672;23.282;2023-11-19T04:26:34;94700.09;;;1.97;100.00
35989;BME280;22064;42.672;23.282;2023-11-19T04:29:00;94723.53;;;2.15;100.00
35989;BME280;22064;42.672;23.282;2023-11-19T04:31:29;94740.94;;;2.20;100.00
35989;BME280;22064;42.672;23.282;2023-11-19T04:33:58;94736.31;;;2.08;100.00
35989;BME280;22064;42.672;23.282;2023-11-19T04:36:26;94719.94;;;2.10;100.00
35989;BME280;22064;42.672;23.282;2023-11-19T04:38:53;94722.59;;;1.95;100.00
35989;BME280;22064;42.672;23.282;2023-11-19T04:41:19;94730.78;;;2.12;100.00
35989;BME280;22064;42.672;23.282;2023-11-19T04:43:44;94740.31;;;2.18;100.00
35989;BME280;22064;42.672;23.282;2023-11-19T04:46:10;94719.97;;;2.16;100.00
35989;BME280;22064;42.672;23.282;2023-11-19T04:48:36;94721.88;;;2.07;100.00
35989;BME280;22064;42.672;23.282;2023-11-19T04:51:05;94743.22;;;2.08;100.00
35989;BME280;22064;42.672;23.282;2023-11-19T04:53:31;94740.06;;;2.06;100.00
35989;BME280;22064;42.672;23.282;2023-11-19T04:55:57;94737.34;;;2.14;100.00
35989;BME280;22064;42.672;23.282;2023-11-19T04:58:22;94721.47;;;2.04;100.00
35989;BME280;22064;42.672;23.282;2023-11-19T05:00:48;94723.09;;;2.12;100.00
35989;BME280;22064;42.672;23.282;2023-11-19T05:03:14;94739.91;;;2.14;100.00
35989;BME280;22064;42.672;23.282;2023-11-19T05:05:40;94699.34;;;2.03;100.00
35989;BME280;22064;42.672;23.282;2023-11-19T05:08:06;94758.31;;;2.18;100.00
35989;BME280;22064;42.672;23.282;2023-11-19T05:10:32;94764.44;;;2.17;100.00
35989;BME280;22064;42.672;23.282;2023-11-19T05:12:57;94769.03;;;2.21;100.00
35989;BME280;22064;42.672;23.282;2023-11-19T05:15:23;94755.84;;;2.03;100.00
35989;BME280;22064;42.672;23.282;2023-11-19T05:17:49;94756.31;;;2.13;100.00
35989;BME280;22064;42.672;23.282;2023-11-19T05:20:15;94763.81;;;2.15;100.00
35989;BME280;22064;42.672;23.282;2023-11-19T05:22:42;94752.72;;;2.07;100.00
35989;BME280;22064;42.672;23.282;2023-11-19T05:25:08;94760.28;;;2.16;100.00
35989;BME280;22064;42.672;23.282;2023-11-19T05:27:36;94749.75;;;2.11;100.00
35989;BME280;22064;42.672;23.282;2023-11-19T05:30:06;94748.03;;;2.18;100.00
35989;BME280;22064;42.672;23.282;2023-11-19T05:32:41;94763.41;;;2.11;100.00
35989;BME280;22064;42.672;23.282;2023-11-19T05:35:07;94759.91;;;2.19;100.00
35989;BME280;22064;42.672;23.282;2023-11-19T05:37:34;94758.63;;;2.08;100.00
35989;BME280;22064;42.672;23.282;2023-11-19T05:40:01;94759.78;;;2.05;100.00
35989;BME280;22064;42.672;23.282;2023-11-19T05:42:29;94749.47;;;1.99;100.00
35989;BME280;22064;42.672;23.282;2023-11-19T05:44:55;94760.00;;;2.04;100.00
35989;BME280;22064;42.672;23.282;2023-11-19T05:47:21;94768.31;;;2.06;100.00
35989;BME280;22064;42.672;23.282;2023-11-19T05:49:47;94767.69;;;2.04;100.00
35989;BME280;22064;42.672;23.282;2023-11-19T05:52:13;94759.78;;;2.05;100.00
35989;BME280;22064;42.672;23.282;2023-11-19T05:54:39;94770.13;;;1.84;100.00
35989;BME280;22064;42.672;23.282;2023-11-19T05:57:05;94768.81;;;1.95;100.00
35989;BME280;22064;42.672;23.282;2023-11-19T05:59:31;94780.13;;;2.00;100.00
35989;BME280;22064;42.672;23.282;2023-11-19T06:01:58;94772.06;;;1.82;100.00
35989;BME280;22064;42.672;23.282;2023-11-19T06:04:24;94789.66;;;1.85;100.00
35989;BME280;22064;42.672;23.282;2023-11-19T06:06:50;94809.78;;;1.81;100.00
35989;BME280;22064;42.672;23.282;2023-11-19T06:09:16;94813.41;;;1.87;100.00
35989;BME280;22064;42.672;23.282;2023-11-19T06:11:43;94800.41;;;1.95;100.00
35989;BME280;22064;42.672;23.282;2023-11-19T06:14:10;94786.47;;;1.83;100.00
35989;BME280;22064;42.672;23.282;2023-11-19T06:16:36;94807.56;;;2.00;100.00
35989;BME280;22064;42.672;23.282;2023-11-19T06:19:05;94797.41;;;1.92;100.00
35989;BME280;22064;42.672;23.282;2023-11-19T06:21:31;94794.31;;;1.96;100.00
35989;BME280;22064;42.672;23.282;2023-11-19T06:23:56;94786.06;;;1.79;100.00
35989;BME280;22064;42.672;23.282;2023-11-19T06:26:23;94790.81;;;1.82;100.00
35989;BME280;22064;42.672;23.282;2023-11-19T06:28:49;94814.84;;;1.75;100.00
35989;BME280;22064;42.672;23.282;2023-11-19T06:31:15;94804.22;;;1.78;100.00
35989;BME280;22064;42.672;23.282;2023-11-19T06:33:42;94799.56;;;1.88;100.00
35989;BME280;22064;42.672;23.282;2023-11-19T06:36:08;94781.91;;;1.78;100.00
35989;BME280;22064;42.672;23.282;2023-11-19T06:38:35;94803.34;;;1.71;100.00
35989;BME280;22064;42.672;23.282;2023-11-19T06:41:01;94816.81;;;1.73;100.00
35989;BME280;22064;42.672;23.282;2023-11-19T06:43:27;94792.34;;;1.77;100.00
35989;BME280;22064;42.672;23.282;2023-11-19T06:45:56;94821.56;;;1.76;100.00
35989;BME280;22064;42.672;23.282;2023-11-19T06:48:22;94801.75;;;1.70;100.00
35989;BME280;22064;42.672;23.282;2023-11-19T06:50:48;94808.78;;;1.61;100.00
35989;BME280;22064;42.672;23.282;2023-11-19T06:53:13;94793.31;;;1.54;100.00
35989;BME280;22064;42.672;23.282;2023-11-19T06:55:39;94764.34;;;1.39;100.00
35989;BME280;22064;42.672;23.282;2023-11-19T06:58:06;94773.56;;;1.55;100.00
35989;BME280;22064;42.672;23.282;2023-11-19T07:00:33;94785.63;;;1.76;100.00
35989;BME280;22064;42.672;23.282;2023-11-19T07:03:00;94816.66;;;1.59;100.00
35989;BME280;22064;42.672;23.282;2023-11-19T07:05:26;94798.78;;;1.66;100.00
35989;BME280;22064;42.672;23.282;2023-11-19T07:07:52;94786.72;;;1.67;100.00
35989;BME280;22064;42.672;23.282;2023-11-19T07:10:18;94817.16;;;1.70;100.00
35989;BME280;22064;42.672;23.282;2023-11-19T07:12:44;94814.22;;;1.73;100.00
35989;BME280;22064;42.672;23.282;2023-11-19T07:15:10;94783.44;;;1.73;100.00
35989;BME280;22064;42.672;23.282;2023-11-19T07:17:36;94809.94;;;1.80;100.00
35989;BME280;22064;42.672;23.282;2023-11-19T07:20:02;94824.72;;;1.56;100.00
35989;BME280;22064;42.672;23.282;2023-11-19T07:22:29;94794.22;;;1.68;100.00
35989;BME280;22064;42.672;23.282;2023-11-19T07:24:55;94802.44;;;1.78;100.00
35989;BME280;22064;42.672;23.282;2023-11-19T07:27:21;94812.19;;;1.68;100.00
35989;BME280;22064;42.672;23.282;2023-11-19T07:29:48;94808.72;;;1.76;100.00
35989;BME280;22064;42.672;23.282;2023-11-19T07:32:14;94811.97;;;1.63;100.00
35989;BME280;22064;42.672;23.282;2023-11-19T07:34:39;94836.84;;;1.63;100.00
35989;BME280;22064;42.672;23.282;2023-11-19T07:37:05;94806.06;;;1.48;100.00
35989;BME280;22064;42.672;23.282;2023-11-19T07:39:31;94843.78;;;1.47;100.00
35989;BME280;22064;42.672;23.282;2023-11-19T07:41:58;94861.97;;;1.52;100.00
35989;BME280;22064;42.672;23.282;2023-11-19T07:44:24;94844.78;;;1.68;100.00
35989;BME280;22064;42.672;23.282;2023-11-19T07:46:50;94838.78;;;1.60;100.00
35989;BME280;22064;42.672;23.282;2023-11-19T07:49:16;94840.69;;;1.73;100.00
35989;BME280;22064;42.672;23.282;2023-11-19T07:51:42;94845.41;;;1.70;100.00
35989;BME280;22064;42.672;23.282;2023-11-19T07:54:08;94854.09;;;1.69;100.00
35989;BME280;22064;42.672;23.282;2023-11-19T07:56:34;94848.81;;;1.77;100.00
35989;BME280;22064;42.672;23.282;2023-11-19T07:59:02;94847.97;;;1.70;100.00
35989;BME280;22064;42.672;23.282;2023-11-19T08:01:27;94836.22;;;1.60;100.00
35989;BME280;22064;42.672;23.282;2023-11-19T08:03:54;94871.34;;;1.60;100.00
35989;BME280;22064;42.672;23.282;2023-11-19T08:06:20;94867.72;;;1.69;100.00
35989;BME280;22064;42.672;23.282;2023-11-19T08:08:46;94861.13;;;1.81;100.00
35989;BME280;22064;42.672;23.282;2023-11-19T08:11:14;94864.03;;;1.57;100.00
35989;BME280;22064;42.672;23.282;2023-11-19T08:13:40;94862.78;;;1.89;100.00
35989;BME280;22064;42.672;23.282;2023-11-19T08:16:07;94853.63;;;1.44;100.00
35989;BME280;22064;42.672;23.282;2023-11-19T08:18:33;94879.84;;;1.60;100.00
35989;BME280;22064;42.672;23.282;2023-11-19T08:20:59;94879.69;;;1.47;100.00
35989;BME280;22064;42.672;23.282;2023-11-19T08:23:26;94863.16;;;1.50;100.00
35989;BME280;22064;42.672;23.282;2023-11-19T08:25:54;94866.84;;;1.62;100.00
35989;BME280;22064;42.672;23.282;2023-11-19T08:28:20;94856.19;;;1.65;100.00
35989;BME280;22064;42.672;23.282;2023-11-19T08:30:46;94868.41;;;1.78;100.00
35989;BME280;22064;42.672;23.282;2023-11-19T08:33:12;94876.91;;;1.78;100.00
35989;BME280;22064;42.672;23.282;2023-11-19T08:35:38;94856.53;;;1.77;100.00
35989;BME280;22064;42.672;23.282;2023-11-19T08:38:04;94893.72;;;1.81;100.00
35989;BME280;22064;42.672;23.282;2023-11-19T08:40:30;94869.13;;;1.72;100.00
35989;BME280;22064;42.672;23.282;2023-11-19T08:42:56;94880.25;;;1.79;100.00
35989;BME280;22064;42.672;23.282;2023-11-19T08:45:22;94878.53;;;1.86;100.00
35989;BME280;22064;42.672;23.282;2023-11-19T08:47:48;94884.41;;;1.80;100.00
35989;BME280;22064;42.672;23.282;2023-11-19T08:50:14;94880.34;;;1.71;100.00
35989;BME280;22064;42.672;23.282;2023-11-19T08:52:40;94870.09;;;1.71;100.00
35989;BME280;22064;42.672;23.282;2023-11-19T08:55:07;94884.66;;;1.85;100.00
35989;BME280;22064;42.672;23.282;2023-11-19T08:57:35;94884.41;;;1.80;100.00
35989;BME280;22064;42.672;23.282;2023-11-19T09:00:01;94884.78;;;1.98;100.00
35989;BME280;22064;42.672;23.282;2023-11-19T09:02:28;94896.16;;;1.89;100.00
35989;BME280;22064;42.672;23.282;2023-11-19T09:04:54;94872.31;;;1.95;100.00
35989;BME280;22064;42.672;23.282;2023-11-19T09:07:20;94892.13;;;2.01;100.00
35989;BME280;22064;42.672;23.282;2023-11-19T09:09:47;94863.88;;;2.01;100.00
35989;BME280;22064;42.672;23.282;2023-11-19T09:12:12;94857.03;;;2.08;100.00
35989;BME280;22064;42.672;23.282;2023-11-19T09:14:39;94852.19;;;2.20;100.00
35989;BME280;22064;42.672;23.282;2023-11-19T09:17:05;94845.41;;;2.34;100.00
35989;BME280;22064;42.672;23.282;2023-11-19T09:19:32;94868.53;;;2.34;100.00
35989;BME280;22064;42.672;23.282;2023-11-19T09:21:58;94870.19;;;2.20;100.00
35989;BME280;22064;42.672;23.282;2023-11-19T09:24:24;94863.56;;;2.33;100.00
35989;BME280;22064;42.672;23.282;2023-11-19T09:26:50;94900.53;;;2.10;100.00
35989;BME280;22064;42.672;23.282;2023-11-19T09:29:15;94891.03;;;2.11;100.00
35989;BME280;22064;42.672;23.282;2023-11-19T09:31:42;94873.13;;;2.17;100.00
35989;BME280;22064;42.672;23.282;2023-11-19T09:34:08;94858.38;;;2.26;100.00
35989;BME280;22064;42.672;23.282;2023-11-19T09:36:34;94886.38;;;2.21;100.00
35989;BME280;22064;42.672;23.282;2023-11-19T09:38:59;94869.34;;;2.13;100.00
35989;BME280;22064;42.672;23.282;2023-11-19T09:41:27;94820.22;;;2.01;100.00
35989;BME280;22064;42.672;23.282;2023-11-19T09:43:53;94843.09;;;2.18;100.00
35989;BME280;22064;42.672;23.282;2023-11-19T09:46:19;94836.09;;;2.33;100.00
35989;BME280;22064;42.672;23.282;2023-11-19T09:48:46;94815.84;;;2.45;100.00
35989;BME280;22064;42.672;23.282;2023-11-19T09:51:14;94825.03;;;2.11;100.00
35989;BME280;22064;42.672;23.282;2023-11-19T09:53:40;94812.97;;;2.33;100.00
35989;BME280;22064;42.672;23.282;2023-11-19T09:56:07;94805.75;;;2.43;100.00
35989;BME280;22064;42.672;23.282;2023-11-19T09:58:36;94801.19;;;2.45;100.00
35989;BME280;22064;42.672;23.282;2023-11-19T10:01:01;94807.56;;;2.49;100.00
35989;BME280;22064;42.672;23.282;2023-11-19T10:03:35;94817.78;;;2.43;100.00
35989;BME280;22064;42.672;23.282;2023-11-19T10:06:09;94827.75;;;2.52;100.00
35989;BME280;22064;42.672;23.282;2023-11-19T10:08:38;94809.81;;;2.59;100.00
35989;BME280;22064;42.672;23.282;2023-11-19T10:11:06;94804.16;;;2.77;100.00
35989;BME280;22064;42.672;23.282;2023-11-19T10:13:35;94821.03;;;2.86;100.00
35989;BME280;22064;42.672;23.282;2023-11-19T10:16:11;94809.56;;;2.54;100.00
35989;BME280;22064;42.672;23.282;2023-11-19T10:18:46;94819.59;;;2.77;100.00
35989;BME280;22064;42.672;23.282;2023-11-19T10:21:13;94812.47;;;3.14;100.00
35989;BME280;22064;42.672;23.282;2023-11-19T10:23:52;94822.59;;;2.81;100.00
35989;BME280;22064;42.672;23.282;2023-11-19T10:26:19;94818.38;;;2.73;100.00
35989;BME280;22064;42.672;23.282;2023-11-19T10:28:46;94804.63;;;2.87;100.00
35989;BME280;22064;42.672;23.282;2023-11-19T10:31:16;94803.41;;;2.83;100.00
35989;BME280;22064;42.672;23.282;2023-11-19T10:33:45;94782.47;;;2.51;100.00
35989;BME280;22064;42.672;23.282;2023-11-19T10:36:12;94793.44;;;2.67;100.00
35989;BME280;22064;42.672;23.282;2023-11-19T10:38:39;94794.03;;;2.69;100.00
35989;BME280;22064;42.672;23.282;2023-11-19T10:41:06;94792.69;;;2.73;100.00
35989;BME280;22064;42.672;23.282;2023-11-19T10:43:43;94794.56;;;2.92;100.00
35989;BME280;22064;42.672;23.282;2023-11-19T10:46:13;94795.09;;;2.81;100.00
35989;BME280;22064;42.672;23.282;2023-11-19T10:48:40;94813.28;;;2.80;100.00
35989;BME280;22064;42.672;23.282;2023-11-19T10:51:07;94810.59;;;2.94;100.00
35989;BME280;22064;42.672;23.282;2023-11-19T10:53:38;94815.13;;;2.92;100.00
35989;BME280;22064;42.672;23.282;2023-11-19T10:56:11;94781.91;;;2.91;100.00
35989;BME280;22064;42.672;23.282;2023-11-19T10:58:37;94790.03;;;2.94;100.00
35989;BME280;22064;42.672;23.282;2023-11-19T11:01:13;94780.97;;;3.05;100.00
35989;BME280;22064;42.672;23.282;2023-11-19T11:03:40;94792.91;;;2.78;100.00
35989;BME280;22064;42.672;23.282;2023-11-19T11:06:06;94774.75;;;2.86;100.00
35989;BME280;22064;42.672;23.282;2023-11-19T11:08:36;94772.50;;;2.70;100.00
35989;BME280;22064;42.672;23.282;2023-11-19T11:11:03;94772.44;;;2.63;100.00
35989;BME280;22064;42.672;23.282;2023-11-19T11:13:31;94762.78;;;2.65;100.00
35989;BME280;22064;42.672;23.282;2023-11-19T11:15:57;94750.91;;;2.64;100.00
35989;BME280;22064;42.672;23.282;2023-11-19T11:18:24;94745.53;;;3.00;100.00
35989;BME280;22064;42.672;23.282;2023-11-19T11:20:59;94749.91;;;3.07;100.00
35989;BME280;22064;42.672;23.282;2023-11-19T11:26:40;94751.91;;;3.11;100.00
35989;BME280;22064;42.672;23.282;2023-11-19T11:35:08;94749.91;;;3.07;100.00
35989;BME280;22064;42.672;23.282;2023-11-19T11:37:44;94757.66;;;3.13;100.00
35989;BME280;22064;42.672;23.282;2023-11-19T11:40:14;94762.84;;;3.33;100.00
35989;BME280;22064;42.672;23.282;2023-11-19T11:42:42;94716.31;;;3.21;100.00
35989;BME280;22064;42.672;23.282;2023-11-19T11:45:11;94729.44;;;3.46;100.00
35989;BME280;22064;42.672;23.282;2023-11-19T11:50:12;94714.63;;;3.55;100.00
35989;BME280;22064;42.672;23.282;2023-11-19T11:53:17;94711.66;;;3.65;100.00
35989;BME280;22064;42.672;23.282;2023-11-19T12:00:47;94716.78;;;4.05;100.00
35989;BME280;22064;42.672;23.282;2023-11-19T12:03:14;94728.66;;;4.32;100.00
35989;BME280;22064;42.672;23.282;2023-11-19T12:05:44;94733.66;;;4.27;100.00
35989;BME280;22064;42.672;23.282;2023-11-19T12:08:14;94718.53;;;4.44;100.00
35989;BME280;22064;42.672;23.282;2023-11-19T12:10:46;94710.56;;;4.66;100.00
35989;BME280;22064;42.672;23.282;2023-11-19T12:13:17;94708.44;;;4.36;100.00
35989;BME280;22064;42.672;23.282;2023-11-19T12:16:07;94700.31;;;4.46;100.00
35989;BME280;22064;42.672;23.282;2023-11-19T12:18:34;94699.06;;;4.68;100.00
35989;BME280;22064;42.672;23.282;2023-11-19T12:21:01;94705.66;;;4.37;100.00
35989;BME280;22064;42.672;23.282;2023-11-19T12:23:29;94699.66;;;4.57;99.49
35989;BME280;22064;42.672;23.282;2023-11-19T12:25:56;94692.13;;;4.62;97.51
35989;BME280;22064;42.672;23.282;2023-11-19T12:28:22;94680.84;;;4.50;96.63
35989;BME280;22064;42.672;23.282;2023-11-19T12:30:49;94688.53;;;4.63;94.62
35989;BME280;22064;42.672;23.282;2023-11-19T12:33:16;94672.47;;;4.61;95.47
35989;BME280;22064;42.672;23.282;2023-11-19T12:35:44;94685.16;;;4.69;94.02
35989;BME280;22064;42.672;23.282;2023-11-19T12:38:20;94673.63;;;4.78;91.89
35989;BME280;22064;42.672;23.282;2023-11-19T12:40:47;94671.97;;;4.91;95.51
35989;BME280;22064;42.672;23.282;2023-11-19T12:43:22;94664.34;;;4.57;100.00
35989;BME280;22064;42.672;23.282;2023-11-19T12:45:48;94668.16;;;4.55;100.00
35989;BME280;22064;42.672;23.282;2023-11-19T12:48:14;94665.75;;;4.60;100.00
35989;BME280;22064;42.672;23.282;2023-11-19T12:50:54;94674.47;;;4.59;100.00
35989;BME280;22064;42.672;23.282;2023-11-19T12:53:21;94667.25;;;4.81;100.00
35989;BME280;22064;42.672;23.282;2023-11-19T12:55:46;94667.28;;;4.74;100.00
35989;BME280;22064;42.672;23.282;2023-11-19T12:58:31;94656.41;;;4.66;100.00
35989;BME280;22064;42.672;23.282;2023-11-19T13:01:05;94660.19;;;4.56;100.00
35989;BME280;22064;42.672;23.282;2023-11-19T13:03:41;94658.47;;;4.44;100.00
35989;BME280;22064;42.672;23.282;2023-11-19T13:06:12;94656.84;;;4.49;100.00
35989;BME280;22064;42.672;23.282;2023-11-19T13:08:47;94652.25;;;4.65;100.00